sensor_id;sensor_type;location;lat;lon;timestamp;pressure;altitude;pressure_sealevel;temperature;humidity
20455;BME280;10386;54.314;10.022;2023-05-24T00:00:05;101963.06;;;10.49;100.00
20455;BME280;10386;54.314;10.022;2023-05-24T00:02:39;101949.25;;;10.53;100.00
20455;BME280;10386;54.314;10.022;2023-05-24T00:05:08;101945.25;;;10.60;100.00
20455;BME280;10386;54.314;10.022;2023-05-24T00:07:36;101944.06;;;10.49;100.00
20455;BME280;10386;54.314;10.022;2023-05-24T00:10:04;101937.44;;;10.54;100.00
20455;BME280;10386;54.314;10.022;2023-05-24T00:12:31;101935.25;;;10.61;100.00
20455;BME280;10386;54.314;10.022;2023-05-24T00:14:58;101934.38;;;10.60;100.00
20455;BME280;10386;54.314;10.022;2023-05-24T00:17:25;101941.75;;;10.58;100.00
20455;BME280;10386;54.314;10.022;2023-05-24T00:19:53;101937.00;;;10.62;100.00
20455;BME280;10386;54.314;10.022;2023-05-24T00:22:19;101932.53;;;10.61;100.00
20455;BME280;10386;54.314;10.022;2023-05-24T00:24:47;101933.81;;;10.54;100.00
20455;BME280;10386;54.314;10.022;2023-05-24T00:27:14;101931.22;;;10.52;100.00
20455;BME280;10386;54.314;10.022;2023-05-24T00:29:41;101924.66;;;10.56;100.00
20455;BME280;10386;54.314;10.022;2023-05-24T00:32:08;101932.34;;;10.48;100.00
20455;BME280;10386;54.314;10.022;2023-05-24T00:34:35;101913.16;;;10.51;100.00
20455;BME280;10386;54.314;10.022;2023-05-24T00:37:05;101907.56;;;10.54;100.00
20455;BME280;10386;54.314;10.022;2023-05-24T00:39:33;101914.91;;;10.52;100.00
20455;BME280;10386;54.314;10.022;2023-05-24T00:41:59;101896.78;;;10.53;100.00
20455;BME280;10386;54.314;10.022;2023-05-24T00:44:29;101896.72;;;10.54;100.00
20455;BME280;10386;54.314;10.022;2023-05-24T00:46:56;101902.53;;;10.47;100.00
20455;BME280;10386;54.314;10.022;2023-05-24T00:49:24;101883.69;;;10.44;100.00
20455;BME280;10386;54.314;10.022;2023-05-24T00:51:52;101884.94;;;10.54;100.00
20455;BME280;10386;54.314;10.022;2023-05-24T00:54:19;101884.09;;;10.53;100.00
20455;BME280;10386;54.314;10.022;2023-05-24T00:56:46;101877.06;;;10.49;100.00
20455;BME280;10386;54.314;10.022;2023-05-24T00:59:13;101875.56;;;10.44;100.00
20455;BME280;10386;54.314;10.022;2023-05-24T01:01:40;101870.28;;;10.41;100.00
20455;BME280;10386;54.314;10.022;2023-05-24T01:04:08;101864.78;;;10.42;100.00
20455;BME280;10386;54.314;10.022;2023-05-24T01:06:42;101856.03;;;10.37;100.00
20455;BME280;10386;54.314;10.022;2023-05-24T01:09:22;101859.25;;;10.44;100.00
20455;BME280;10386;54.314;10.022;2023-05-24T01:12:10;101852.97;;;10.43;100.00
20455;BME280;10386;54.314;10.022;2023-05-24T01:17:32;101845.00;;;10.40;100.00
20455;BME280;10386;54.314;10.022;2023-05-24T01:20:07;101837.47;;;10.45;100.00
20455;BME280;10386;54.314;10.022;2023-05-24T01:23:25;101829.22;;;10.47;100.00
20455;BME280;10386;54.314;10.022;2023-05-24T01:28:39;101825.44;;;10.34;100.00
20455;BME280;10386;54.314;10.022;2023-05-24T01:31:09;101814.84;;;10.29;100.00
20455;BME280;10386;54.314;10.022;2023-05-24T01:33:40;101812.03;;;10.31;100.00
20455;BME280;10386;54.314;10.022;2023-05-24T01:36:08;101810.50;;;10.42;100.00
20455;BME280;10386;54.314;10.022;2023-05-24T01:38:36;101802.97;;;10.47;100.00
20455;BME280;10386;54.314;10.022;2023-05-24T01:41:09;101798.13;;;10.37;100.00
20455;BME280;10386;54.314;10.022;2023-05-24T01:43:42;101789.56;;;10.44;100.00
20455;BME280;10386;54.314;10.022;2023-05-24T01:46:36;101788.22;;;10.36;100.00
20455;BME280;10386;54.314;10.022;2023-05-24T01:52:06;101785.44;;;10.37;100.00
20455;BME280;10386;54.314;10.022;2023-05-24T01:54:37;101788.34;;;10.34;100.00
20455;BME280;10386;54.314;10.022;2023-05-24T01:57:06;101778.88;;;10.41;100.00
20455;BME280;10386;54.314;10.022;2023-05-24T01:59:35;101775.56;;;10.36;100.00
20455;BME280;10386;54.314;10.022;2023-05-24T02:02:03;101761.63;;;10.42;100.00
20455;BME280;10386;54.314;10.022;2023-05-24T02:04:30;101752.69;;;10.40;100.00
20455;BME280;10386;54.314;10.022;2023-05-24T02:06:57;101746.72;;;10.34;100.00
20455;BME280;10386;54.314;10.022;2023-05-24T02:09:24;101735.53;;;10.40;100.00
20455;BME280;10386;54.314;10.022;2023-05-24T02:11:50;101723.38;;;10.31;100.00
20455;BME280;10386;54.314;10.022;2023-05-24T02:14:17;101704.81;;;10.39;100.00
20455;BME280;10386;54.314;10.022;2023-05-24T02:16:45;101700.06;;;10.43;100.00
20455;BME280;10386;54.314;10.022;2023-05-24T02:19:13;101690.63;;;10.34;100.00
20455;BME280;10386;54.314;10.022;2023-05-24T02:21:40;101691.41;;;10.36;100.00
20455;BME280;10386;54.314;10.022;2023-05-24T02:24:07;101678.78;;;10.35;100.00
20455;BME280;10386;54.314;10.022;2023-05-24T02:26:37;101667.06;;;10.35;100.00
20455;BME280;10386;54.314;10.022;2023-05-24T02:29:06;101661.63;;;10.35;100.00
20455;BME280;10386;54.314;10.022;2023-05-24T02:31:33;101652.34;;;10.39;100.00
20455;BME280;10386;54.314;10.022;2023-05-24T02:34:00;101649.53;;;10.25;100.00
20455;BME280;10386;54.314;10.022;2023-05-24T02:36:27;101642.13;;;10.28;100.00
20455;BME280;10386;54.314;10.022;2023-05-24T02:38:53;101633.88;;;10.30;100.00
20455;BME280;10386;54.314;10.022;2023-05-24T02:41:20;101631.25;;;10.28;100.00
20455;BME280;10386;54.314;10.022;2023-05-24T02:43:47;101619.63;;;10.26;100.00
20455;BME280;10386;54.314;10.022;2023-05-24T02:46:14;101608.47;;;10.31;100.00
20455;BME280;10386;54.314;10.022;2023-05-24T02:48:41;101594.91;;;10.31;100.00
20455;BME280;10386;54.314;10.022;2023-05-24T02:51:08;101593.09;;;10.31;100.00
20455;BME280;10386;54.314;10.022;2023-05-24T02:53:34;101573.19;;;10.31;100.00
20455;BME280;10386;54.314;10.022;2023-05-24T02:56:01;101578.63;;;10.31;100.00
20455;BME280;10386;54.314;10.022;2023-05-24T02:58:28;101570.78;;;10.26;100.00
20455;BME280;10386;54.314;10.022;2023-05-24T03:00:55;101561.66;;;10.27;100.00
20455;BME280;10386;54.314;10.022;2023-05-24T03:03:23;101563.78;;;10.22;100.00
20455;BME280;10386;54.314;10.022;2023-05-24T03:05:50;101541.97;;;10.24;100.00
20455;BME280;10386;54.314;10.022;2023-05-24T03:08:16;101522.69;;;10.28;100.00
20455;BME280;10386;54.314;10.022;2023-05-24T03:10:43;101513.59;;;10.29;100.00
20455;BME280;10386;54.314;10.022;2023-05-24T03:13:13;101509.91;;;10.30;100.00
20455;BME280;10386;54.314;10.022;2023-05-24T03:15:39;101512.69;;;10.29;100.00
20455;BME280;10386;54.314;10.022;2023-05-24T03:18:06;101481.84;;;10.16;100.00
20455;BME280;10386;54.314;10.022;2023-05-24T03:20:33;101477.00;;;10.21;100.00
20455;BME280;10386;54.314;10.022;2023-05-24T03:23:00;101468.78;;;10.22;100.00
20455;BME280;10386;54.314;10.022;2023-05-24T03:25:27;101475.78;;;10.26;100.00
20455;BME280;10386;54.314;10.022;2023-05-24T03:27:54;101458.63;;;10.26;100.00
20455;BME280;10386;54.314;10.022;2023-05-24T03:30:20;101458.44;;;10.29;100.00
20455;BME280;10386;54.314;10.022;2023-05-24T03:32:47;101454.66;;;10.31;100.00
20455;BME280;10386;54.314;10.022;2023-05-24T03:35:14;101448.53;;;10.28;100.00
20455;BME280;10386;54.314;10.022;2023-05-24T03:37:41;101452.38;;;10.39;100.00
20455;BME280;10386;54.314;10.022;2023-05-24T03:40:08;101454.97;;;10.41;100.00
20455;BME280;10386;54.314;10.022;2023-05-24T03:42:34;101445.28;;;10.37;100.00
20455;BME280;10386;54.314;10.022;2023-05-24T03:45:02;101446.41;;;10.33;100.00
20455;BME280;10386;54.314;10.022;2023-05-24T03:47:29;101450.09;;;10.32;100.00
20455;BME280;10386;54.314;10.022;2023-05-24T03:49:58;101453.88;;;10.29;100.00
20455;BME280;10386;54.314;10.022;2023-05-24T03:52:25;101446.41;;;10.33;100.00
20455;BME280;10386;54.314;10.022;2023-05-24T03:54:52;101436.16;;;10.38;100.00
20455;BME280;10386;54.314;10.022;2023-05-24T03:57:19;101441.78;;;10.35;100.00
20455;BME280;10386;54.314;10.022;2023-05-24T03:59:46;101439.66;;;10.40;100.00
20455;BME280;10386;54.314;10.022;2023-05-24T04:02:12;101444.13;;;10.41;100.00
20455;BME280;10386;54.314;10.022;2023-05-24T04:04:40;101441.78;;;10.35;100.00
20455;BME280;10386;54.314;10.022;2023-05-24T04:07:06;101445.09;;;10.40;100.00
20455;BME280;10386;54.314;10.022;2023-05-24T04:09:37;101449.47;;;10.42;100.00
20455;BME280;10386;54.314;10.022;2023-05-24T04:12:04;101441.50;;;10.39;100.00
20455;BME280;10386;54.314;10.022;2023-05-24T04:14:32;101448.50;;;10.43;100.00
20455;BME280;10386;54.314;10.022;2023-05-24T04:16:59;101446.19;;;10.51;100.00
20455;BME280;10386;54.314;10.022;2023-05-24T04:19:27;101456.34;;;10.48;100.00
20455;BME280;10386;54.314;10.022;2023-05-24T04:21:56;101449.88;;;10.50;100.00
20455;BME280;10386;54.314;10.022;2023-05-24T04:24:23;101455.97;;;10.54;100.00
20455;BME280;10386;54.314;10.022;2023-05-24T04:26:49;101452.41;;;10.53;100.00
20455;BME280;10386;54.314;10.022;2023-05-24T04:29:17;101453.84;;;10.59;100.00
20455;BME280;10386;54.314;10.022;2023-05-24T04:31:44;101448.16;;;10.63;100.00
20455;BME280;10386;54.314;10.022;2023-05-24T04:34:11;101455.97;;;10.54;100.00
20455;BME280;10386;54.314;10.022;2023-05-24T04:36:39;101451.25;;;10.57;100.00
20455;BME280;10386;54.314;10.022;2023-05-24T04:39:06;101458.03;;;10.64;100.00
20455;BME280;10386;54.314;10.022;2023-05-24T04:41:33;101460.00;;;10.76;100.00
20455;BME280;10386;54.314;10.022;2023-05-24T04:44:04;101459.22;;;10.74;100.00
20455;BME280;10386;54.314;10.022;2023-05-24T04:46:30;101460.56;;;10.81;100.00
20455;BME280;10386;54.314;10.022;2023-05-24T04:49:01;101454.88;;;10.86;100.00
20455;BME280;10386;54.314;10.022;2023-05-24T04:51:28;101463.88;;;10.86;100.00
20455;BME280;10386;54.314;10.022;2023-05-24T04:53:55;101469.44;;;10.85;100.00
20455;BME280;10386;54.314;10.022;2023-05-24T04:56:21;101466.41;;;10.89;100.00
20455;BME280;10386;54.314;10.022;2023-05-24T04:58:48;101472.22;;;10.83;100.00
20455;BME280;10386;54.314;10.022;2023-05-24T05:01:15;101478.44;;;10.85;100.00
20455;BME280;10386;54.314;10.022;2023-05-24T05:03:42;101484.16;;;10.81;100.00
20455;BME280;10386;54.314;10.022;2023-05-24T05:06:11;101491.94;;;10.87;100.00
20455;BME280;10386;54.314;10.022;2023-05-24T05:08:38;101482.81;;;10.88;100.00
20455;BME280;10386;54.314;10.022;2023-05-24T05:11:05;101490.78;;;10.91;100.00
20455;BME280;10386;54.314;10.022;2023-05-24T05:13:31;101501.16;;;10.98;100.00
20455;BME280;10386;54.314;10.022;2023-05-24T05:15:58;101508.84;;;11.05;100.00
20455;BME280;10386;54.314;10.022;2023-05-24T05:18:25;101507.66;;;11.23;100.00
20455;BME280;10386;54.314;10.022;2023-05-24T05:20:52;101514.00;;;11.24;100.00
20455;BME280;10386;54.314;10.022;2023-05-24T05:23:18;101510.09;;;11.42;100.00
20455;BME280;10386;54.314;10.022;2023-05-24T05:25:45;101513.81;;;11.55;100.00
20455;BME280;10386;54.314;10.022;2023-05-24T05:28:12;101525.72;;;11.38;100.00
20455;BME280;10386;54.314;10.022;2023-05-24T05:30:39;101529.72;;;11.47;100.00
20455;BME280;10386;54.314;10.022;2023-05-24T05:33:06;101529.63;;;11.48;100.00
20455;BME280;10386;54.314;10.022;2023-05-24T05:35:33;101542.94;;;11.39;100.00
20455;BME280;10386;54.314;10.022;2023-05-24T05:37:59;101541.94;;;11.54;100.00
20455;BME280;10386;54.314;10.022;2023-05-24T05:40:26;101551.41;;;11.62;100.00
20455;BME280;10386;54.314;10.022;2023-05-24T05:42:53;101567.97;;;11.44;100.00
20455;BME280;10386;54.314;10.022;2023-05-24T05:45:20;101581.78;;;11.41;100.00
20455;BME280;10386;54.314;10.022;2023-05-24T05:47:47;101587.28;;;11.25;100.00
20455;BME280;10386;54.314;10.022;2023-05-24T05:50:14;101582.94;;;11.37;100.00
20455;BME280;10386;54.314;10.022;2023-05-24T05:52:40;101586.69;;;11.34;100.00
20455;BME280;10386;54.314;10.022;2023-05-24T05:55:07;101595.75;;;11.35;100.00
20455;BME280;10386;54.314;10.022;2023-05-24T05:57:34;101604.09;;;11.32;100.00
20455;BME280;10386;54.314;10.022;2023-05-24T06:00:01;101614.19;;;11.30;100.00
20455;BME280;10386;54.314;10.022;2023-05-24T06:02:31;101616.00;;;11.29;100.00
20455;BME280;10386;54.314;10.022;2023-05-24T06:04:59;101620.59;;;11.29;100.00
20455;BME280;10386;54.314;10.022;2023-05-24T06:07:25;101620.78;;;11.55;100.00
20455;BME280;10386;54.314;10.022;2023-05-24T06:09:52;101613.97;;;11.62;100.00
20455;BME280;10386;54.314;10.022;2023-05-24T06:12:22;101633.19;;;11.59;100.00
20455;BME280;10386;54.314;10.022;2023-05-24T06:14:49;101635.53;;;11.65;100.00
20455;BME280;10386;54.314;10.022;2023-05-24T06:17:16;101639.31;;;11.77;100.00
20455;BME280;10386;54.314;10.022;2023-05-24T06:19:44;101646.22;;;11.82;100.00
20455;BME280;10386;54.314;10.022;2023-05-24T06:22:11;101650.69;;;11.83;100.00
20455;BME280;10386;54.314;10.022;2023-05-24T06:24:38;101655.66;;;11.91;100.00
20455;BME280;10386;54.314;10.022;2023-05-24T06:27:05;101666.16;;;12.11;100.00
20455;BME280;10386;54.314;10.022;2023-05-24T06:29:32;101674.59;;;12.34;100.00
20455;BME280;10386;54.314;10.022;2023-05-24T06:31:58;101679.09;;;12.47;100.00
20455;BME280;10386;54.314;10.022;2023-05-24T06:34:25;101686.63;;;12.44;100.00
20455;BME280;10386;54.314;10.022;2023-05-24T06:36:52;101694.16;;;12.67;100.00
20455;BME280;10386;54.314;10.022;2023-05-24T06:39:19;101703.75;;;12.86;100.00
20455;BME280;10386;54.314;10.022;2023-05-24T06:41:46;101735.94;;;12.39;100.00
20455;BME280;10386;54.314;10.022;2023-05-24T06:44:13;101747.13;;;12.35;100.00
20455;BME280;10386;54.314;10.022;2023-05-24T06:46:41;101756.56;;;12.16;100.00
20455;BME280;10386;54.314;10.022;2023-05-24T06:49:08;101764.78;;;12.00;100.00
20455;BME280;10386;54.314;10.022;2023-05-24T06:51:35;101764.22;;;12.23;100.00
20455;BME280;10386;54.314;10.022;2023-05-24T06:54:03;101762.69;;;12.47;100.00
20455;BME280;10386;54.314;10.022;2023-05-24T06:56:34;101773.66;;;12.45;100.00
20455;BME280;10386;54.314;10.022;2023-05-24T06:59:01;101777.47;;;12.43;100.00
20455;BME280;10386;54.314;10.022;2023-05-24T07:01:28;101793.97;;;12.26;100.00
20455;BME280;10386;54.314;10.022;2023-05-24T07:03:55;101801.66;;;12.20;100.00
20455;BME280;10386;54.314;10.022;2023-05-24T07:06:21;101802.13;;;12.12;100.00
20455;BME280;10386;54.314;10.022;2023-05-24T07:08:48;101806.91;;;12.09;100.00
20455;BME280;10386;54.314;10.022;2023-05-24T07:11:15;101804.41;;;12.34;100.00
20455;BME280;10386;54.314;10.022;2023-05-24T07:13:42;101818.88;;;12.20;100.00
20455;BME280;10386;54.314;10.022;2023-05-24T07:16:09;101817.03;;;12.35;100.00
20455;BME280;10386;54.314;10.022;2023-05-24T07:18:37;101820.53;;;12.37;100.00
20455;BME280;10386;54.314;10.022;2023-05-24T07:21:04;101837.84;;;12.36;100.00
20455;BME280;10386;54.314;10.022;2023-05-24T07:23:30;101835.06;;;12.37;100.00
20455;BME280;10386;54.314;10.022;2023-05-24T07:26:00;101838.34;;;12.42;100.00
20455;BME280;10386;54.314;10.022;2023-05-24T07:28:27;101834.03;;;12.24;100.00
20455;BME280;10386;54.314;10.022;2023-05-24T07:30:53;101836.03;;;12.36;100.00
20455;BME280;10386;54.314;10.022;2023-05-24T07:33:20;101846.41;;;12.43;100.00
20455;BME280;10386;54.314;10.022;2023-05-24T07:35:47;101850.44;;;12.52;100.00
20455;BME280;10386;54.314;10.022;2023-05-24T07:38:17;101837.66;;;12.66;100.00
20455;BME280;10386;54.314;10.022;2023-05-24T07:40:44;101849.16;;;12.57;100.00
20455;BME280;10386;54.314;10.022;2023-05-24T07:43:11;101853.72;;;12.85;100.00
20455;BME280;10386;54.314;10.022;2023-05-24T07:45:38;101858.09;;;12.87;100.00
20455;BME280;10386;54.314;10.022;2023-05-24T07:48:05;101875.63;;;13.11;100.00
20455;BME280;10386;54.314;10.022;2023-05-24T07:50:32;101891.19;;;13.23;100.00
20455;BME280;10386;54.314;10.022;2023-05-24T07:52:59;101893.34;;;13.18;100.00
20455;BME280;10386;54.314;10.022;2023-05-24T07:55:25;101915.66;;;12.97;100.00
20455;BME280;10386;54.314;10.022;2023-05-24T07:57:53;101931.69;;;12.87;100.00
20455;BME280;10386;54.314;10.022;2023-05-24T08:00:20;101932.19;;;12.94;100.00
20455;BME280;10386;54.314;10.022;2023-05-24T08:02:47;101930.25;;;13.24;100.00
20455;BME280;10386;54.314;10.022;2023-05-24T08:05:14;101932.75;;;13.41;100.00
20455;BME280;10386;54.314;10.022;2023-05-24T08:07:42;101944.69;;;13.66;100.00
20455;BME280;10386;54.314;10.022;2023-05-24T08:10:09;101967.78;;;13.61;100.00
20455;BME280;10386;54.314;10.022;2023-05-24T08:12:41;101975.38;;;13.70;100.00
20455;BME280;10386;54.314;10.022;2023-05-24T08:15:08;101982.69;;;14.09;100.00
20455;BME280;10386;54.314;10.022;2023-05-24T08:17:37;101999.25;;;14.20;100.00
20455;BME280;10386;54.314;10.022;2023-05-24T08:20:04;102007.03;;;14.26;100.00
20455;BME280;10386;54.314;10.022;2023-05-24T08:22:35;102021.16;;;14.72;100.00
20455;BME280;10386;54.314;10.022;2023-05-24T08:25:03;102027.38;;;14.86;100.00
20455;BME280;10386;54.314;10.022;2023-05-24T08:27:30;102042.56;;;14.65;100.00
20455;BME280;10386;54.314;10.022;2023-05-24T08:29:57;102065.81;;;14.46;100.00
20455;BME280;10386;54.314;10.022;2023-05-24T08:32:24;102073.16;;;14.31;100.00
20455;BME280;10386;54.314;10.022;2023-05-24T08:34:51;102069.72;;;14.81;100.00
20455;BME280;10386;54.314;10.022;2023-05-24T08:37:33;102097.06;;;14.28;100.00
20455;BME280;10386;54.314;10.022;2023-05-24T08:40:00;102099.28;;;14.35;100.00
20455;BME280;10386;54.314;10.022;2023-05-24T08:42:27;102094.31;;;14.81;100.00
20455;BME280;10386;54.314;10.022;2023-05-24T08:45:03;102107.75;;;14.71;100.00
20455;BME280;10386;54.314;10.022;2023-05-24T08:47:35;102115.16;;;14.57;100.00
20455;BME280;10386;54.314;10.022;2023-05-24T08:50:03;102135.78;;;14.34;100.00
20455;BME280;10386;54.314;10.022;2023-05-24T08:52:31;102136.03;;;14.44;100.00
20455;BME280;10386;54.314;10.022;2023-05-24T08:54:58;102138.78;;;14.70;100.00
20455;BME280;10386;54.314;10.022;2023-05-24T08:57:26;102150.72;;;14.69;100.00
20455;BME280;10386;54.314;10.022;2023-05-24T08:59:53;102154.94;;;14.61;100.00
20455;BME280;10386;54.314;10.022;2023-05-24T09:02:22;102167.69;;;14.74;100.00
20455;BME280;10386;54.314;10.022;2023-05-24T09:04:51;102172.28;;;15.00;100.00
20455;BME280;10386;54.314;10.022;2023-05-24T09:07:20;102180.06;;;14.80;100.00
20455;BME280;10386;54.314;10.022;2023-05-24T09:09:59;102187.59;;;14.50;100.00
20455;BME280;10386;54.314;10.022;2023-05-24T09:12:29;102202.03;;;14.10;100.00
20455;BME280;10386;54.314;10.022;2023-05-24T09:15:05;102190.75;;;14.16;100.00
20455;BME280;10386;54.314;10.022;2023-05-24T09:17:33;102198.38;;;14.92;100.00
20455;BME280;10386;54.314;10.022;2023-05-24T09:20:01;102195.28;;;15.36;100.00
20455;BME280;10386;54.314;10.022;2023-05-24T09:22:32;102206.06;;;15.64;100.00
20455;BME280;10386;54.314;10.022;2023-05-24T09:25:04;102195.97;;;16.40;100.00
20455;BME280;10386;54.314;10.022;2023-05-24T09:27:32;102221.16;;;16.07;100.00
20455;BME280;10386;54.314;10.022;2023-05-24T09:30:02;102227.09;;;16.51;100.00
20455;BME280;10386;54.314;10.022;2023-05-24T09:32:31;102237.97;;;15.78;100.00
20455;BME280;10386;54.314;10.022;2023-05-24T09:34:58;102244.06;;;16.56;100.00
20455;BME280;10386;54.314;10.022;2023-05-24T09:37:26;102241.47;;;16.17;100.00
20455;BME280;10386;54.314;10.022;2023-05-24T09:39:58;102246.81;;;16.56;100.00
20455;BME280;10386;54.314;10.022;2023-05-24T09:42:26;102257.34;;;16.12;100.00
20455;BME280;10386;54.314;10.022;2023-05-24T09:45:03;102263.91;;;15.97;100.00
20455;BME280;10386;54.314;10.022;2023-05-24T09:47:33;102267.44;;;15.87;100.00
20455;BME280;10386;54.314;10.022;2023-05-24T09:50:01;102275.34;;;16.16;100.00
20455;BME280;10386;54.314;10.022;2023-05-24T09:52:29;102263.78;;;16.73;100.00
20455;BME280;10386;54.314;10.022;2023-05-24T09:57:49;102265.00;;;16.69;100.00
20455;BME280;10386;54.314;10.022;2023-05-24T10:00:25;102264.34;;;17.38;100.00
20455;BME280;10386;54.314;10.022;2023-05-24T10:03:03;102246.53;;;17.43;100.00
20455;BME280;10386;54.314;10.022;2023-05-24T10:05:33;102252.13;;;16.82;100.00
20455;BME280;10386;54.314;10.022;2023-05-24T10:08:01;102252.63;;;16.64;100.00
20455;BME280;10386;54.314;10.022;2023-05-24T10:10:31;102251.84;;;17.34;100.00
20455;BME280;10386;54.314;10.022;2023-05-24T10:12:59;102225.59;;;17.99;100.00
20455;BME280;10386;54.314;10.022;2023-05-24T10:15:28;102231.22;;;17.63;100.00
20455;BME280;10386;54.314;10.022;2023-05-24T10:17:56;102230.31;;;19.06;100.00
20455;BME280;10386;54.314;10.022;2023-05-24T10:20:23;102225.88;;;18.72;100.00
20455;BME280;10386;54.314;10.022;2023-05-24T10:22:54;102233.50;;;17.69;100.00
20455;BME280;10386;54.314;10.022;2023-05-24T10:25:28;102236.16;;;17.23;100.00
20455;BME280;10386;54.314;10.022;2023-05-24T10:28:07;102262.38;;;16.56;100.00
20455;BME280;10386;54.314;10.022;2023-05-24T10:33:55;102283.91;;;16.37;100.00
20455;BME280;10386;54.314;10.022;2023-05-24T10:36:43;102280.34;;;17.31;100.00
20455;BME280;10386;54.314;10.022;2023-05-24T10:39:20;102262.41;;;18.85;100.00
20455;BME280;10386;54.314;10.022;2023-05-24T10:41:47;102222.03;;;18.53;100.00
20455;BME280;10386;54.314;10.022;2023-05-24T10:44:17;102212.13;;;18.61;100.00
20455;BME280;10386;54.314;10.022;2023-05-24T10:49:36;102227.69;;;17.50;100.00
20455;BME280;10386;54.314;10.022;2023-05-24T10:52:08;102209.00;;;17.08;100.00
20455;BME280;10386;54.314;10.022;2023-05-24T10:54:35;102214.75;;;17.05;100.00
20455;BME280;10386;54.314;10.022;2023-05-24T10:57:07;102229.63;;;18.60;100.00
20455;BME280;10386;54.314;10.022;2023-05-24T10:59:36;102205.47;;;18.09;100.00
20455;BME280;10386;54.314;10.022;2023-05-24T11:02:09;102218.38;;;18.41;100.00
20455;BME280;10386;54.314;10.022;2023-05-24T11:04:41;102199.97;;;19.28;100.00
20455;BME280;10386;54.314;10.022;2023-05-24T11:07:09;102178.38;;;19.02;100.00
20455;BME280;10386;54.314;10.022;2023-05-24T11:09:38;102235.75;;;17.75;100.00
20455;BME280;10386;54.314;10.022;2023-05-24T11:12:19;102260.31;;;17.89;100.00
20455;BME280;10386;54.314;10.022;2023-05-24T11:14:52;102246.78;;;17.28;100.00
20455;BME280;10386;54.314;10.022;2023-05-24T11:17:21;102278.25;;;17.11;100.00
20455;BME280;10386;54.314;10.022;2023-05-24T11:19:50;102277.16;;;16.78;100.00
20455;BME280;10386;54.314;10.022;2023-05-24T11:22:20;102304.28;;;17.89;100.00
20455;BME280;10386;54.314;10.022;2023-05-24T11:24:47;102257.47;;;17.67;100.00
20455;BME280;10386;54.314;10.022;2023-05-24T11:27:14;102263.91;;;18.56;100.00
20455;BME280;10386;54.314;10.022;2023-05-24T11:29:43;102234.25;;;18.27;100.00
20455;BME280;10386;54.314;10.022;2023-05-24T11:32:18;102222.84;;;19.40;100.00
20455;BME280;10386;54.314;10.022;2023-05-24T11:34:46;102199.13;;;19.48;100.00
20455;BME280;10386;54.314;10.022;2023-05-24T11:37:14;102201.25;;;19.24;100.00
20455;BME280;10386;54.314;10.022;2023-05-24T11:39:49;102205.38;;;19.50;100.00
20455;BME280;10386;54.314;10.022;2023-05-24T11:42:17;102224.63;;;19.81;100.00
20455;BME280;10386;54.314;10.022;2023-05-24T11:44:47;102192.63;;;19.69;100.00
20455;BME280;10386;54.314;10.022;2023-05-24T11:47:14;102207.03;;;19.10;100.00
20455;BME280;10386;54.314;10.022;2023-05-24T11:49:40;102218.38;;;18.41;100.00
20455;BME280;10386;54.314;10.022;2023-05-24T11:52:07;102255.31;;;19.25;100.00
20455;BME280;10386;54.314;10.022;2023-05-24T11:54:34;102241.28;;;19.28;100.00
20455;BME280;10386;54.314;10.022;2023-05-24T11:57:03;102207.09;;;18.88;100.00
20455;BME280;10386;54.314;10.022;2023-05-24T11:59:31;102194.59;;;19.58;100.00
20455;BME280;10386;54.314;10.022;2023-05-24T12:04:27;102174.72;;;20.25;100.00
20455;BME280;10386;54.314;10.022;2023-05-24T12:06:54;102197.53;;;19.66;100.00
20455;BME280;10386;54.314;10.022;2023-05-24T12:09:22;102227.50;;;19.28;100.00
20455;BME280;10386;54.314;10.022;2023-05-24T12:11:49;102221.44;;;18.92;100.00
20455;BME280;10386;54.314;10.022;2023-05-24T12:16:45;102227.38;;;18.43;100.00
20455;BME280;10386;54.314;10.022;2023-05-24T12:19:22;102209.50;;;18.71;100.00
20455;BME280;10386;54.314;10.022;2023-05-24T12:22:02;102211.09;;;19.99;100.00
20455;BME280;10386;54.314;10.022;2023-05-24T12:24:31;102186.25;;;19.06;100.00
20455;BME280;10386;54.314;10.022;2023-05-24T12:26:59;102231.91;;;19.31;100.00
20455;BME280;10386;54.314;10.022;2023-05-24T12:29:39;102202.50;;;20.13;100.00
20455;BME280;10386;54.314;10.022;2023-05-24T12:32:09;102184.13;;;20.53;100.00
20455;BME280;10386;54.314;10.022;2023-05-24T12:34:42;102171.34;;;20.52;100.00
20455;BME280;10386;54.314;10.022;2023-05-24T12:37:13;102197.13;;;20.81;100.00
20455;BME280;10386;54.314;10.022;2023-05-24T12:39:41;102220.47;;;19.87;100.00
20455;BME280;10386;54.314;10.022;2023-05-24T12:42:10;102231.19;;;19.18;100.00
20455;BME280;10386;54.314;10.022;2023-05-24T12:44:39;102255.13;;;18.84;100.00
20455;BME280;10386;54.314;10.022;2023-05-24T12:47:06;102234.97;;;18.84;100.00
20455;BME280;10386;54.314;10.022;2023-05-24T12:49:34;102241.38;;;18.51;100.00
20455;BME280;10386;54.314;10.022;2023-05-24T12:52:01;102236.81;;;19.05;100.00
20455;BME280;10386;54.314;10.022;2023-05-24T12:54:28;102257.09;;;19.78;100.00
20455;BME280;10386;54.314;10.022;2023-05-24T12:56:56;102249.97;;;20.37;100.00
20455;BME280;10386;54.314;10.022;2023-05-24T12:59:26;102219.97;;;20.23;100.00